sensor_id;sensor_type;location;lat;lon;timestamp;pressure;altitude;pressure_sealevel;temperature;humidity
52777;BME280;38656;54.260;20.822;2023-03-21T00:02:00;100724.94;;;11.60;100.00
52777;BME280;38656;54.260;20.822;2023-03-21T00:04:26;100712.88;;;11.78;100.00
52777;BME280;38656;54.260;20.822;2023-03-21T00:06:53;100713.63;;;11.69;100.00
52777;BME280;38656;54.260;20.822;2023-03-21T00:09:20;100711.78;;;11.14;100.00
52777;BME280;38656;54.260;20.822;2023-03-21T00:11:46;100715.13;;;11.16;100.00
52777;BME280;38656;54.260;20.822;2023-03-21T00:14:13;100710.78;;;11.61;100.00
52777;BME280;38656;54.260;20.822;2023-03-21T00:16:43;100714.16;;;12.28;100.00
52777;BME280;38656;54.260;20.822;2023-03-21T00:19:11;100707.28;;;12.04;100.00
52777;BME280;38656;54.260;20.822;2023-03-21T00:21:39;100702.59;;;12.08;100.00
52777;BME280;38656;54.260;20.822;2023-03-21T00:24:08;100707.53;;;12.01;100.00
52777;BME280;38656;54.260;20.822;2023-03-21T00:26:34;100699.25;;;11.50;100.00
52777;BME280;38656;54.260;20.822;2023-03-21T00:29:01;100697.72;;;11.37;100.00
52777;BME280;38656;54.260;20.822;2023-03-21T00:31:27;100696.34;;;11.54;100.00
52777;BME280;38656;54.260;20.822;2023-03-21T00:33:53;100697.34;;;11.41;100.00
52777;BME280;38656;54.260;20.822;2023-03-21T00:36:19;100683.38;;;11.50;100.00
52777;BME280;38656;54.260;20.822;2023-03-21T00:38:46;100682.03;;;11.56;100.00
52777;BME280;38656;54.260;20.822;2023-03-21T00:41:13;100691.41;;;12.04;100.00
52777;BME280;38656;54.260;20.822;2023-03-21T00:43:42;100686.66;;;11.20;100.00
52777;BME280;38656;54.260;20.822;2023-03-21T00:46:08;100685.94;;;11.29;100.00
52777;BME280;38656;54.260;20.822;2023-03-21T00:48:34;100683.13;;;11.54;100.00
52777;BME280;38656;54.260;20.822;2023-03-21T00:51:01;100690.22;;;11.42;100.00
52777;BME280;38656;54.260;20.822;2023-03-21T00:53:28;100691.34;;;11.05;100.00
52777;BME280;38656;54.260;20.822;2023-03-21T00:55:55;100694.44;;;11.88;100.00
52777;BME280;38656;54.260;20.822;2023-03-21T00:58:21;100679.59;;;12.08;100.00
52777;BME280;38656;54.260;20.822;2023-03-21T01:00:47;100694.09;;;11.15;100.00
52777;BME280;38656;54.260;20.822;2023-03-21T01:03:15;100696.56;;;10.49;100.00
52777;BME280;38656;54.260;20.822;2023-03-21T01:05:44;100687.97;;;11.37;100.00
52777;BME280;38656;54.260;20.822;2023-03-21T01:08:29;100686.34;;;11.68;100.00
52777;BME280;38656;54.260;20.822;2023-03-21T01:10:59;100689.03;;;11.46;100.00
52777;BME280;38656;54.260;20.822;2023-03-21T01:13:25;100679.66;;;11.85;100.00
52777;BME280;38656;54.260;20.822;2023-03-21T01:15:54;100683.66;;;11.25;100.00
52777;BME280;38656;54.260;20.822;2023-03-21T01:18:23;100684.28;;;11.72;100.00
52777;BME280;38656;54.260;20.822;2023-03-21T01:20:54;100678.69;;;11.86;100.00
52777;BME280;38656;54.260;20.822;2023-03-21T01:23:21;100683.88;;;11.33;100.00
52777;BME280;38656;54.260;20.822;2023-03-21T01:25:49;100685.19;;;11.94;100.00
52777;BME280;38656;54.260;20.822;2023-03-21T01:28:16;100682.81;;;11.79;100.00
52777;BME280;38656;54.260;20.822;2023-03-21T01:30:46;100684.03;;;11.20;100.00
52777;BME280;38656;54.260;20.822;2023-03-21T01:33:13;100681.25;;;11.22;100.00
52777;BME280;38656;54.260;20.822;2023-03-21T01:35:40;100678.09;;;11.50;100.00
52777;BME280;38656;54.260;20.822;2023-03-21T01:38:07;100679.75;;;11.51;100.00
52777;BME280;38656;54.260;20.822;2023-03-21T01:40:34;100676.94;;;10.98;100.00
52777;BME280;38656;54.260;20.822;2023-03-21T01:43:01;100671.16;;;10.59;100.00
52777;BME280;38656;54.260;20.822;2023-03-21T01:48:32;100675.25;;;10.86;100.00
52777;BME280;38656;54.260;20.822;2023-03-21T01:50:59;100675.44;;;10.37;100.00
52777;BME280;38656;54.260;20.822;2023-03-21T01:53:28;100678.13;;;10.24;100.00
52777;BME280;38656;54.260;20.822;2023-03-21T01:56:10;100666.09;;;10.56;100.00
52777;BME280;38656;54.260;20.822;2023-03-21T01:58:38;100682.44;;;10.72;100.00
52777;BME280;38656;54.260;20.822;2023-03-21T02:01:09;100684.31;;;10.48;100.00
52777;BME280;38656;54.260;20.822;2023-03-21T02:03:39;100671.63;;;10.53;100.00
52777;BME280;38656;54.260;20.822;2023-03-21T02:07:03;100677.66;;;10.66;100.00
52777;BME280;38656;54.260;20.822;2023-03-21T02:09:07;100673.75;;;10.48;100.00
52777;BME280;38656;54.260;20.822;2023-03-21T02:11:35;100676.94;;;10.98;100.00
52777;BME280;38656;54.260;20.822;2023-03-21T02:14:16;100671.63;;;11.21;100.00
52777;BME280;38656;54.260;20.822;2023-03-21T02:27:21;100669.72;;;11.11;100.00
52777;BME280;38656;54.260;20.822;2023-03-21T02:35:44;100673.09;;;11.25;100.00
52777;BME280;38656;54.260;20.822;2023-03-21T02:38:46;100675.44;;;11.50;100.00
52777;BME280;38656;54.260;20.822;2023-03-21T02:41:46;100681.75;;;10.82;100.00
52777;BME280;38656;54.260;20.822;2023-03-21T02:47:13;100677.66;;;10.89;100.00
52777;BME280;38656;54.260;20.822;2023-03-21T02:50:03;100681.00;;;10.68;100.00
52777;BME280;38656;54.260;20.822;2023-03-21T02:52:34;100681.38;;;11.20;100.00
52777;BME280;38656;54.260;20.822;2023-03-21T02:55:02;100685.25;;;10.35;100.00
52777;BME280;38656;54.260;20.822;2023-03-21T02:57:30;100687.75;;;10.95;100.00
52777;BME280;38656;54.260;20.822;2023-03-21T02:59:57;100679.56;;;10.87;100.00
52777;BME280;38656;54.260;20.822;2023-03-21T03:02:27;100685.47;;;11.68;100.00
52777;BME280;38656;54.260;20.822;2023-03-21T03:04:53;100683.28;;;10.26;100.00
52777;BME280;38656;54.260;20.822;2023-03-21T03:10:06;100685.09;;;11.06;100.00
52777;BME280;38656;54.260;20.822;2023-03-21T03:13:04;100690.84;;;10.77;100.00
52777;BME280;38656;54.260;20.822;2023-03-21T03:20:51;100698.78;;;11.34;100.00
52777;BME280;38656;54.260;20.822;2023-03-21T03:28:38;100705.97;;;12.31;100.00
52777;BME280;38656;54.260;20.822;2023-03-21T03:31:07;100701.91;;;11.28;100.00
52777;BME280;38656;54.260;20.822;2023-03-21T03:33:41;100712.34;;;11.52;100.00
52777;BME280;38656;54.260;20.822;2023-03-21T03:36:11;100696.88;;;11.13;100.00
52777;BME280;38656;54.260;20.822;2023-03-21T03:38:39;100704.56;;;11.28;100.00
52777;BME280;38656;54.260;20.822;2023-03-21T03:41:11;100707.31;;;11.26;100.00
52777;BME280;38656;54.260;20.822;2023-03-21T03:43:47;100700.09;;;11.40;100.00
52777;BME280;38656;54.260;20.822;2023-03-21T03:46:28;100699.63;;;11.12;100.00
52777;BME280;38656;54.260;20.822;2023-03-21T03:49:12;100697.13;;;11.10;100.00
52777;BME280;38656;54.260;20.822;2023-03-21T03:52:06;100711.72;;;10.58;100.00
52777;BME280;38656;54.260;20.822;2023-03-21T03:54:41;100699.97;;;10.73;100.00
52777;BME280;38656;54.260;20.822;2023-03-21T03:57:08;100706.22;;;10.84;100.00
52777;BME280;38656;54.260;20.822;2023-03-21T03:59:38;100701.09;;;10.93;100.00
52777;BME280;38656;54.260;20.822;2023-03-21T04:02:05;100701.91;;;10.94;100.00
52777;BME280;38656;54.260;20.822;2023-03-21T04:04:32;100703.09;;;11.46;100.00
52777;BME280;38656;54.260;20.822;2023-03-21T04:06:59;100703.59;;;10.95;100.00
52777;BME280;38656;54.260;20.822;2023-03-21T04:09:26;100709.34;;;11.23;100.00
52777;BME280;38656;54.260;20.822;2023-03-21T04:11:56;100708.56;;;11.77;100.00
52777;BME280;38656;54.260;20.822;2023-03-21T04:14:23;100706.47;;;11.26;100.00
52777;BME280;38656;54.260;20.822;2023-03-21T04:16:49;100707.69;;;11.10;100.00
52777;BME280;38656;54.260;20.822;2023-03-21T04:19:18;100707.56;;;11.12;100.00
52777;BME280;38656;54.260;20.822;2023-03-21T04:21:46;100702.59;;;11.52;100.00
52777;BME280;38656;54.260;20.822;2023-03-21T04:24:12;100707.34;;;11.04;100.00
52777;BME280;38656;54.260;20.822;2023-03-21T04:26:39;100714.16;;;10.72;100.00
52777;BME280;38656;54.260;20.822;2023-03-21T04:29:06;100713.69;;;11.24;100.00
52777;BME280;38656;54.260;20.822;2023-03-21T04:31:33;100710.69;;;11.17;100.00
52777;BME280;38656;54.260;20.822;2023-03-21T04:34:02;100720.19;;;11.31;100.00
52777;BME280;38656;54.260;20.822;2023-03-21T04:36:30;100717.75;;;10.94;100.00
52777;BME280;38656;54.260;20.822;2023-03-21T04:39:06;100725.78;;;10.70;100.00
52777;BME280;38656;54.260;20.822;2023-03-21T04:41:38;100720.19;;;11.31;100.00
52777;BME280;38656;54.260;20.822;2023-03-21T04:44:05;100721.34;;;11.61;100.00
52777;BME280;38656;54.260;20.822;2023-03-21T04:46:32;100717.38;;;10.76;100.00
52777;BME280;38656;54.260;20.822;2023-03-21T04:48:58;100728.34;;;10.94;100.00
52777;BME280;38656;54.260;20.822;2023-03-21T04:51:25;100725.47;;;11.31;100.00
52777;BME280;38656;54.260;20.822;2023-03-21T04:53:51;100724.63;;;11.08;100.00
52777;BME280;38656;54.260;20.822;2023-03-21T04:56:23;100719.06;;;11.33;100.00
52777;BME280;38656;54.260;20.822;2023-03-21T04:58:55;100722.53;;;11.57;100.00
52777;BME280;38656;54.260;20.822;2023-03-21T05:01:22;100721.38;;;11.38;100.00
52777;BME280;38656;54.260;20.822;2023-03-21T05:03:48;100728.44;;;10.81;100.00
52777;BME280;38656;54.260;20.822;2023-03-21T05:06:14;100723.66;;;11.98;100.00
52777;BME280;38656;54.260;20.822;2023-03-21T05:08:41;100719.69;;;11.37;100.00
52777;BME280;38656;54.260;20.822;2023-03-21T05:11:07;100719.69;;;11.03;100.00
52777;BME280;38656;54.260;20.822;2023-03-21T05:13:33;100733.69;;;10.58;100.00
52777;BME280;38656;54.260;20.822;2023-03-21T05:16:00;100736.22;;;10.60;100.00
52777;BME280;38656;54.260;20.822;2023-03-21T05:18:26;100724.72;;;10.72;100.00
52777;BME280;38656;54.260;20.822;2023-03-21T05:20:53;100732.22;;;10.54;100.00
52777;BME280;38656;54.260;20.822;2023-03-21T05:23:23;100729.53;;;11.46;100.00
52777;BME280;38656;54.260;20.822;2023-03-21T05:25:50;100734.94;;;11.11;100.00
52777;BME280;38656;54.260;20.822;2023-03-21T05:28:17;100732.66;;;11.29;100.00
52777;BME280;38656;54.260;20.822;2023-03-21T05:30:44;100738.44;;;11.23;100.00
52777;BME280;38656;54.260;20.822;2023-03-21T05:33:11;100736.56;;;10.55;100.00
52777;BME280;38656;54.260;20.822;2023-03-21T05:35:38;100742.94;;;10.04;100.00
52777;BME280;38656;54.260;20.822;2023-03-21T05:38:04;100739.13;;;10.91;100.00
52777;BME280;38656;54.260;20.822;2023-03-21T05:40:30;100740.47;;;11.08;100.00
52777;BME280;38656;54.260;20.822;2023-03-21T05:42:57;100746.47;;;11.21;100.00
52777;BME280;38656;54.260;20.822;2023-03-21T05:45:23;100747.34;;;10.99;100.00
52777;BME280;38656;54.260;20.822;2023-03-21T05:47:49;100751.06;;;11.19;100.00
52777;BME280;38656;54.260;20.822;2023-03-21T05:50:15;100756.94;;;11.11;100.00
52777;BME280;38656;54.260;20.822;2023-03-21T05:52:42;100758.72;;;11.67;100.00
52777;BME280;38656;54.260;20.822;2023-03-21T05:55:08;100756.19;;;10.75;100.00
52777;BME280;38656;54.260;20.822;2023-03-21T05:57:34;100755.44;;;11.75;100.00
52777;BME280;38656;54.260;20.822;2023-03-21T06:00:05;100767.91;;;10.71;100.00
52777;BME280;38656;54.260;20.822;2023-03-21T06:02:32;100754.28;;;11.00;100.00
52777;BME280;38656;54.260;20.822;2023-03-21T06:04:58;100764.13;;;11.66;100.00
52777;BME280;38656;54.260;20.822;2023-03-21T06:07:24;100761.91;;;12.05;100.00
52777;BME280;38656;54.260;20.822;2023-03-21T06:09:50;100767.28;;;11.37;100.00
52777;BME280;38656;54.260;20.822;2023-03-21T06:12:16;100776.41;;;11.44;100.00
52777;BME280;38656;54.260;20.822;2023-03-21T06:14:42;100769.41;;;11.77;100.00
52777;BME280;38656;54.260;20.822;2023-03-21T06:17:09;100776.78;;;12.17;100.00
52777;BME280;38656;54.260;20.822;2023-03-21T06:19:35;100776.75;;;12.29;100.00
52777;BME280;38656;54.260;20.822;2023-03-21T06:22:01;100775.41;;;11.00;100.00
52777;BME280;38656;54.260;20.822;2023-03-21T06:24:27;100788.84;;;11.87;100.00
52777;BME280;38656;54.260;20.822;2023-03-21T06:26:53;100793.91;;;11.00;100.00
52777;BME280;38656;54.260;20.822;2023-03-21T06:29:21;100785.53;;;11.51;100.00
52777;BME280;38656;54.260;20.822;2023-03-21T06:31:47;100792.25;;;11.78;100.00
52777;BME280;38656;54.260;20.822;2023-03-21T06:34:13;100794.66;;;11.70;100.00
52777;BME280;38656;54.260;20.822;2023-03-21T06:36:39;100800.41;;;11.98;100.00
52777;BME280;38656;54.260;20.822;2023-03-21T06:39:06;100802.00;;;12.33;100.00
52777;BME280;38656;54.260;20.822;2023-03-21T06:41:33;100802.66;;;12.46;100.00
52777;BME280;38656;54.260;20.822;2023-03-21T06:43:59;100804.34;;;12.15;100.00
52777;BME280;38656;54.260;20.822;2023-03-21T06:46:25;100804.53;;;11.57;100.00
52777;BME280;38656;54.260;20.822;2023-03-21T06:48:52;100817.47;;;12.16;100.00
52777;BME280;38656;54.260;20.822;2023-03-21T06:51:18;100829.28;;;12.12;100.00
52777;BME280;38656;54.260;20.822;2023-03-21T06:53:44;100824.00;;;11.78;100.00
52777;BME280;38656;54.260;20.822;2023-03-21T06:56:11;100832.41;;;11.95;100.00
52777;BME280;38656;54.260;20.822;2023-03-21T06:58:38;100845.03;;;12.14;100.00
52777;BME280;38656;54.260;20.822;2023-03-21T07:01:05;100839.50;;;11.60;100.00
52777;BME280;38656;54.260;20.822;2023-03-21T07:03:32;100845.41;;;11.52;100.00
52777;BME280;38656;54.260;20.822;2023-03-21T07:06:08;100846.59;;;12.05;100.00
52777;BME280;38656;54.260;20.822;2023-03-21T07:08:37;100850.44;;;11.56;100.00
52777;BME280;38656;54.260;20.822;2023-03-21T07:11:04;100850.91;;;11.27;100.00
52777;BME280;38656;54.260;20.822;2023-03-21T07:13:31;100852.84;;;11.36;100.00
52777;BME280;38656;54.260;20.822;2023-03-21T07:15:58;100856.47;;;11.92;100.00
52777;BME280;38656;54.260;20.822;2023-03-21T07:18:24;100856.47;;;11.46;100.00
52777;BME280;38656;54.260;20.822;2023-03-21T07:20:51;100852.38;;;11.54;100.00
52777;BME280;38656;54.260;20.822;2023-03-21T07:23:19;100853.19;;;12.22;100.00
52777;BME280;38656;54.260;20.822;2023-03-21T07:25:49;100859.03;;;12.48;100.00
52777;BME280;38656;54.260;20.822;2023-03-21T07:28:17;100856.72;;;11.66;100.00
52777;BME280;38656;54.260;20.822;2023-03-21T07:30:44;100857.91;;;11.73;100.00
52777;BME280;38656;54.260;20.822;2023-03-21T07:33:11;100870.75;;;11.32;100.00
52777;BME280;38656;54.260;20.822;2023-03-21T07:35:37;100862.19;;;11.18;100.00
52777;BME280;38656;54.260;20.822;2023-03-21T07:38:04;100859.13;;;11.35;100.00
52777;BME280;38656;54.260;20.822;2023-03-21T07:40:31;100862.09;;;11.53;100.00
52777;BME280;38656;54.260;20.822;2023-03-21T07:42:57;100861.25;;;12.20;100.00
52777;BME280;38656;54.260;20.822;2023-03-21T07:45:24;100859.88;;;12.81;99.99
52777;BME280;38656;54.260;20.822;2023-03-21T07:47:52;100866.78;;;12.17;100.00
52777;BME280;38656;54.260;20.822;2023-03-21T07:50:18;100864.53;;;11.67;100.00
52777;BME280;38656;54.260;20.822;2023-03-21T07:52:45;100868.53;;;11.96;100.00
52777;BME280;38656;54.260;20.822;2023-03-21T07:55:12;100862.50;;;14.16;96.07
52777;BME280;38656;54.260;20.822;2023-03-21T07:57:38;100868.50;;;13.68;93.38
52777;BME280;38656;54.260;20.822;2023-03-21T08:00:05;100873.81;;;12.83;93.72
52777;BME280;38656;54.260;20.822;2023-03-21T08:02:32;100866.28;;;12.24;99.29
52777;BME280;38656;54.260;20.822;2023-03-21T08:04:58;100869.94;;;13.30;97.61
52777;BME280;38656;54.260;20.822;2023-03-21T08:07:24;100863.81;;;13.81;94.73
52777;BME280;38656;54.260;20.822;2023-03-21T08:09:52;100867.75;;;12.28;97.63
52777;BME280;38656;54.260;20.822;2023-03-21T08:12:18;100872.53;;;12.99;96.69
52777;BME280;38656;54.260;20.822;2023-03-21T08:14:44;100879.31;;;12.91;94.43
52777;BME280;38656;54.260;20.822;2023-03-21T08:17:11;100874.53;;;12.09;99.12
52777;BME280;38656;54.260;20.822;2023-03-21T08:19:37;100879.53;;;12.35;98.26
52777;BME280;38656;54.260;20.822;2023-03-21T08:22:03;100877.41;;;11.95;100.00
52777;BME280;38656;54.260;20.822;2023-03-21T08:24:31;100876.19;;;11.65;100.00
52777;BME280;38656;54.260;20.822;2023-03-21T08:27:00;100870.16;;;11.74;100.00
52777;BME280;38656;54.260;20.822;2023-03-21T08:29:27;100871.75;;;11.43;100.00
52777;BME280;38656;54.260;20.822;2023-03-21T08:31:53;100883.84;;;11.34;100.00
52777;BME280;38656;54.260;20.822;2023-03-21T08:34:19;100882.72;;;11.95;100.00
52777;BME280;38656;54.260;20.822;2023-03-21T08:36:48;100885.13;;;11.98;100.00
52777;BME280;38656;54.260;20.822;2023-03-21T08:39:14;100882.31;;;12.66;100.00
52777;BME280;38656;54.260;20.822;2023-03-21T08:41:40;100876.66;;;11.81;100.00
52777;BME280;38656;54.260;20.822;2023-03-21T08:44:06;100886.72;;;12.33;100.00
52777;BME280;38656;54.260;20.822;2023-03-21T08:46:33;100891.78;;;11.45;100.00
52777;BME280;38656;54.260;20.822;2023-03-21T08:48:59;100891.84;;;11.10;100.00
52777;BME280;38656;54.260;20.822;2023-03-21T08:51:25;100893.84;;;12.44;98.44
52777;BME280;38656;54.260;20.822;2023-03-21T08:53:51;100897.56;;;12.30;97.16
52777;BME280;38656;54.260;20.822;2023-03-21T08:56:18;100896.53;;;13.18;96.69
52777;BME280;38656;54.260;20.822;2023-03-21T08:58:44;100903.78;;;13.16;92.67
52777;BME280;38656;54.260;20.822;2023-03-21T09:01:10;100904.00;;;12.60;94.48
52777;BME280;38656;54.260;20.822;2023-03-21T09:03:41;100903.63;;;12.20;95.17
52777;BME280;38656;54.260;20.822;2023-03-21T09:06:08;100907.41;;;12.50;94.54
52777;BME280;38656;54.260;20.822;2023-03-21T09:08:37;100905.25;;;13.09;94.53
52777;BME280;38656;54.260;20.822;2023-03-21T09:11:04;100913.97;;;12.24;96.77
52777;BME280;38656;54.260;20.822;2023-03-21T09:13:30;100917.59;;;11.77;98.51
52777;BME280;38656;54.260;20.822;2023-03-21T09:15:56;100911.94;;;12.71;96.05
52777;BME280;38656;54.260;20.822;2023-03-21T09:18:26;100916.94;;;13.06;96.25
52777;BME280;38656;54.260;20.822;2023-03-21T09:21:09;100918.34;;;13.01;95.03
52777;BME280;38656;54.260;20.822;2023-03-21T09:23:40;100926.66;;;12.64;94.10
52777;BME280;38656;54.260;20.822;2023-03-21T09:26:07;100928.59;;;13.78;94.57
52777;BME280;38656;54.260;20.822;2023-03-21T09:28:47;100924.84;;;12.97;94.85
52777;BME280;38656;54.260;20.822;2023-03-21T09:31:14;100927.41;;;12.54;96.00
52777;BME280;38656;54.260;20.822;2023-03-21T09:33:51;100932.72;;;13.08;95.43
52777;BME280;38656;54.260;20.822;2023-03-21T09:36:18;100937.28;;;12.41;93.06
52777;BME280;38656;54.260;20.822;2023-03-21T09:38:47;100944.66;;;13.14;94.86
52777;BME280;38656;54.260;20.822;2023-03-21T09:49:10;100941.19;;;13.02;96.53
52777;BME280;38656;54.260;20.822;2023-03-21T09:51:46;100944.41;;;14.11;94.15
52777;BME280;38656;54.260;20.822;2023-03-21T09:54:33;100949.53;;;13.72;94.09
52777;BME280;38656;54.260;20.822;2023-03-21T09:57:24;100951.59;;;13.47;91.49
52777;BME280;38656;54.260;20.822;2023-03-21T09:59:54;100945.72;;;13.95;90.45
52777;BME280;38656;54.260;20.822;2023-03-21T10:05:17;100953.41;;;13.68;91.43
52777;BME280;38656;54.260;20.822;2023-03-21T10:10:53;100948.84;;;14.10;88.08
52777;BME280;38656;54.260;20.822;2023-03-21T10:13:27;100945.22;;;14.52;87.60
52777;BME280;38656;54.260;20.822;2023-03-21T10:15:57;100955.22;;;14.99;84.67
52777;BME280;38656;54.260;20.822;2023-03-21T10:18:25;100957.88;;;13.88;86.25
52777;BME280;38656;54.260;20.822;2023-03-21T10:20:52;100958.41;;;13.82;87.03
52777;BME280;38656;54.260;20.822;2023-03-21T10:23:21;100956.81;;;14.51;84.24
52777;BME280;38656;54.260;20.822;2023-03-21T10:25:53;100950.47;;;14.63;85.41
52777;BME280;38656;54.260;20.822;2023-03-21T10:28:37;100961.00;;;14.44;82.25
52777;BME280;38656;54.260;20.822;2023-03-21T10:31:08;100961.81;;;14.34;86.91
52777;BME280;38656;54.260;20.822;2023-03-21T10:33:38;100954.50;;;14.27;87.53
52777;BME280;38656;54.260;20.822;2023-03-21T10:38:34;100969.22;;;13.48;89.40
52777;BME280;38656;54.260;20.822;2023-03-21T10:41:02;100967.00;;;13.53;87.55
52777;BME280;38656;54.260;20.822;2023-03-21T10:43:30;100971.03;;;13.69;88.38
52777;BME280;38656;54.260;20.822;2023-03-21T10:46:19;100972.00;;;14.29;87.35
52777;BME280;38656;54.260;20.822;2023-03-21T10:48:52;100965.31;;;15.25;81.64
52777;BME280;38656;54.260;20.822;2023-03-21T10:51:27;100965.72;;;13.99;84.83
52777;BME280;38656;54.260;20.822;2023-03-21T10:53:58;100966.56;;;13.48;88.26
52777;BME280;38656;54.260;20.822;2023-03-21T10:56:29;100972.06;;;12.59;92.81
52777;BME280;38656;54.260;20.822;2023-03-21T10:58:58;100968.72;;;12.89;92.45
52777;BME280;38656;54.260;20.822;2023-03-21T11:01:34;100957.88;;;12.92;91.49
52777;BME280;38656;54.260;20.822;2023-03-21T11:04:12;100958.91;;;13.55;90.33
52777;BME280;38656;54.260;20.822;2023-03-21T11:06:54;100963.53;;;14.45;88.40
52777;BME280;38656;54.260;20.822;2023-03-21T11:09:24;100970.78;;;14.33;88.78
52777;BME280;38656;54.260;20.822;2023-03-21T11:12:04;100964.66;;;14.12;86.30
52777;BME280;38656;54.260;20.822;2023-03-21T11:14:43;100957.75;;;14.81;85.67
52777;BME280;38656;54.260;20.822;2023-03-21T11:17:29;100957.63;;;14.42;83.66
52777;BME280;38656;54.260;20.822;2023-03-21T11:19:59;100956.59;;;14.74;82.61
52777;BME280;38656;54.260;20.822;2023-03-21T11:22:29;100952.97;;;14.75;80.59
52777;BME280;38656;54.260;20.822;2023-03-21T11:24:59;100959.59;;;14.40;85.15
52777;BME280;38656;54.260;20.822;2023-03-21T11:27:30;100966.47;;;12.73;86.01
52777;BME280;38656;54.260;20.822;2023-03-21T11:30:00;100963.03;;;13.26;88.18
52777;BME280;38656;54.260;20.822;2023-03-21T11:32:37;100967.59;;;13.78;85.54
52777;BME280;38656;54.260;20.822;2023-03-21T11:35:15;100973.03;;;13.76;83.49
52777;BME280;38656;54.260;20.822;2023-03-21T11:37:45;100967.50;;;14.20;82.01
52777;BME280;38656;54.260;20.822;2023-03-21T11:40:28;100975.97;;;13.52;84.91
52777;BME280;38656;54.260;20.822;2023-03-21T11:43:23;100975.88;;;13.10;82.52
52777;BME280;38656;54.260;20.822;2023-03-21T11:48:26;100965.22;;;15.93;74.06
52777;BME280;38656;54.260;20.822;2023-03-21T11:51:02;100973.09;;;13.44;81.50
52777;BME280;38656;54.260;20.822;2023-03-21T11:56:28;100974.63;;;14.60;78.34
52777;BME280;38656;54.260;20.822;2023-03-21T12:01:57;100979.25;;;13.12;84.44
52777;BME280;38656;54.260;20.822;2023-03-21T12:09:52;100969.22;;;13.48;82.84
52777;BME280;38656;54.260;20.822;2023-03-21T12:13:09;100979.00;;;13.15;83.91
52777;BME280;38656;54.260;20.822;2023-03-21T12:34:40;100975.28;;;12.74;82.33
52777;BME280;38656;54.260;20.822;2023-03-21T12:37:29;100981.50;;;13.17;83.79
52777;BME280;38656;54.260;20.822;2023-03-21T12:45:54;100978.63;;;14.45;78.37
52777;BME280;38656;54.260;20.822;2023-03-21T12:50:55;100987.16;;;13.23;82.64
52777;BME280;38656;54.260;20.822;2023-03-21T12:56:37;100988.22;;;13.53;80.18
52777;BME280;38656;54.260;20.822;2023-03-21T12:59:21;100989.53;;;13.38;79.85
52777;BME280;38656;54.260;20.822;2023-03-21T13:01:50;100994.84;;;13.80;79.61
52777;BME280;38656;54.260;20.822;2023-03-21T13:04:35;100994.97;;;13.57;77.22
52777;BME280;38656;54.260;20.822;2023-03-21T13:07:04;100996.53;;;14.43;75.81
52777;BME280;38656;54.260;20.822;2023-03-21T13:09:38;100997.81;;;13.87;79.43
52777;BME280;38656;54.260;20.822;2023-03-21T13:15:21;100999.75;;;13.63;79.76
52777;BME280;38656;54.260;20.822;2023-03-21T13:18:34;101001.88;;;13.91;79.69
52777;BME280;38656;54.260;20.822;2023-03-21T13:20:54;100998.25;;;13.92;77.34
52777;BME280;38656;54.260;20.822;2023-03-21T13:23:23;100989.94;;;14.97;75.97
52777;BME280;38656;54.260;20.822;2023-03-21T13:25:52;101001.13;;;13.25;78.95
52777;BME280;38656;54.260;20.822;2023-03-21T13:28:21;100992.06;;;13.07;82.26
52777;BME280;38656;54.260;20.822;2023-03-21T13:30:50;100985.59;;;13.53;80.83
52777;BME280;38656;54.260;20.822;2023-03-21T13:33:29;100981.28;;;13.52;78.32
52777;BME280;38656;54.260;20.822;2023-03-21T13:35:59;100975.56;;;12.37;84.60
52777;BME280;38656;54.260;20.822;2023-03-21T13:38:32;100981.81;;;12.59;84.42
52777;BME280;38656;54.260;20.822;2023-03-21T13:41:04;100985.63;;;13.09;84.88
52777;BME280;38656;54.260;20.822;2023-03-21T13:51:37;100979.50;;;13.09;87.57
52777;BME280;38656;54.260;20.822;2023-03-21T13:56:50;100978.97;;;12.28;93.41
52777;BME280;38656;54.260;20.822;2023-03-21T13:59:37;100973.00;;;12.69;92.53
52777;BME280;38656;54.260;20.822;2023-03-21T14:02:27;100979.44;;;11.99;95.35
52777;BME280;38656;54.260;20.822;2023-03-21T14:05:06;100980.66;;;12.29;95.43
52777;BME280;38656;54.260;20.822;2023-03-21T14:07:35;100987.59;;;12.30;96.06
52777;BME280;38656;54.260;20.822;2023-03-21T14:10:04;100985.56;;;12.45;96.88
52777;BME280;38656;54.260;20.822;2023-03-21T14:12:43;100988.84;;;13.24;95.51
52777;BME280;38656;54.260;20.822;2023-03-21T14:22:50;100992.34;;;11.68;90.96
52777;BME280;38656;54.260;20.822;2023-03-21T14:25:20;100991.72;;;12.11;91.12
52777;BME280;38656;54.260;20.822;2023-03-21T14:27:54;100992.88;;;12.64;89.62
52777;BME280;38656;54.260;20.822;2023-03-21T14:30:32;100987.97;;;12.59;92.75
52777;BME280;38656;54.260;20.822;2023-03-21T14:33:41;100983.72;;;12.56;95.59
52777;BME280;38656;54.260;20.822;2023-03-21T14:36:18;100983.75;;;12.34;97.64
52777;BME280;38656;54.260;20.822;2023-03-21T14:39:04;100983.50;;;12.60;96.65
52777;BME280;38656;54.260;20.822;2023-03-21T14:41:34;100988.50;;;11.72;99.18
52777;BME280;38656;54.260;20.822;2023-03-21T14:44:18;100985.16;;;11.34;100.00
52777;BME280;38656;54.260;20.822;2023-03-21T14:47:05;100984.88;;;11.50;100.00
52777;BME280;38656;54.260;20.822;2023-03-21T14:49:34;100977.00;;;12.52;99.64